Observation data for Seymour on 01/19/2019      Previous  Date  Next       Current Mesonet Observations  Soil Data  Daily Summary Page  Observations in Plain Language
KSE1 190600Z 34029G37KT 06/01 A2991 RMK A01 T00560008  RH  072%=      5-min Rain = 0
KSE1 190605Z 34026G33KT 06/01 A2992 RMK A01 T00560008  RH  072%=      5-min Rain = 0
KSE1 190610Z 33026G32KT 06/01 A2992 RMK A01 T00550007  RH  072%=      5-min Rain = 0
KSE1 190615Z 33025G31KT 05/01 A2992 RMK A01 T00540005  RH  072%=      5-min Rain = 0
KSE1 190620Z 33027G34KT 05/00 A2993 RMK A01 T00530004  RH  071%=      5-min Rain = 0
KSE1 190625Z 33027G35KT 05/00 A2993 RMK A01 T00520003  RH  072%=      5-min Rain = 0
KSE1 190630Z 33026G33KT 05/00 A2993 RMK A01 T00500004  RH  073%=      5-min Rain = 0
KSE1 190635Z 33027G34KT 05/01 A2994 RMK A01 T00470005  RH  075%=      5-min Rain = 0
KSE1 190640Z 33028G35KT 04/01 A2994 RMK A01 T00400006  RH  079%=      5-min Rain = 0
KSE1 190645Z 34025G32KT 03/01 A2995 RMK A01 T00330006  RH  083%=      5-min Rain = 0
KSE1 190650Z 34022G27KT 03/01 A2995 RMK A01 T00290008  RH  087%=      5-min Rain = 0
KSE1 190655Z 33024G31KT 03/01 A2995 RMK A01 T00310007  RH  085%=      5-min Rain = 0
KSE1 190700Z 33028G35KT 03/01 A2995 RMK A01 T00290005  RH  085%=      5-min Rain = 0
KSE1 190705Z 33029G35KT 03/00 A2995 RMK A01 T00270003  RH  085%=      5-min Rain = 0
KSE1 190710Z 33032G39KT 03/00 A2996 RMK A01 T00260002  RH  085%=      5-min Rain = 0
KSE1 190715Z 33027G34KT 02/00 A2997 RMK A01 T00200002  RH  089%=      5-min Rain = 0
KSE1 190720Z 34025G33KT 02/00 A2997 RMK A01 T00180002  RH  090%=      5-min Rain = 0
KSE1 190725Z 33021G27KT 02/00 A2998 RMK A01 T00170002  RH  091%=      5-min Rain = 0
KSE1 190730Z 33017G25KT 01/M00 A2999 RMK A01 T00121001  RH  092%=      5-min Rain = 0.01
KSE1 190735Z 33014KT 01/M00 A2999 RMK A01 T00101002  RH  093%=      5-min Rain = 0
KSE1 190740Z 33013KT 01/00 A2999 RMK A01 T00110000  RH  094%=      5-min Rain = 0.01
KSE1 190745Z 33015KT 02/01 A2999 RMK A01 T00150005  RH  094%=      5-min Rain = 0
KSE1 190750Z 33020G25KT 02/01 A2999 RMK A01 T00200006  RH  092%=      5-min Rain = 0
KSE1 190755Z 33022G27KT 02/01 A2999 RMK A01 T00210005  RH  090%=      5-min Rain = 0
KSE1 190800Z 33019KT 02/01 A30 RMK A01 T00210005  RH  090%=      5-min Rain = 0
KSE1 190805Z 33019G26KT 02/01 A30 RMK A01 T00220005  RH  090%=      5-min Rain = 0
KSE1 190810Z 33020G25KT 02/00 A30 RMK A01 T00220004  RH  089%=      5-min Rain = 0
KSE1 190815Z 32019KT 02/00 A30 RMK A01 T00230004  RH  089%=      5-min Rain = 0
KSE1 190820Z 32022G28KT 02/00 A3001 RMK A01 T00210003  RH  089%=      5-min Rain = 0
KSE1 190825Z 32024G31KT 02/00 A3001 RMK A01 T00180001  RH  089%=      5-min Rain = 0
KSE1 190830Z 32024G29KT 02/00 A3001 RMK A01 T00160001  RH  090%=      5-min Rain = 0
KSE1 190835Z 32024G31KT 02/00 A3002 RMK A01 T001500-0  RH  091%=      5-min Rain = 0
KSE1 190840Z 32025G35KT 01/M00 A3002 RMK A01 T00121001  RH  093%=      5-min Rain = 0
KSE1 190845Z 33027G37KT 01/M00 A3002 RMK A01 T00071003  RH  094%=      5-min Rain = 0
KSE1 190850Z 33025G32KT 01/M00 A3002 RMK A01 T00061004  RH  094%=      5-min Rain = 0
KSE1 190855Z 33025G32KT 01/M00 A3002 RMK A01 T00071004  RH  093%=      5-min Rain = 0
KSE1 190900Z 34022G28KT 01/M00 A3003 RMK A01 T00071004  RH  093%=      5-min Rain = 0
KSE1 190905Z 33021G27KT 01/M00 A3004 RMK A01 T00071004  RH  094%=      5-min Rain = 0
KSE1 190910Z 33020G25KT 01/M00 A3004 RMK A01 T00081004  RH  093%=      5-min Rain = 0
KSE1 190915Z 33018G23KT 01/M00 A3004 RMK A01 T00081004  RH  092%=      5-min Rain = 0
KSE1 190920Z 33018G23KT 01/M00 A3005 RMK A01 T00091004  RH  092%=      5-min Rain = 0
KSE1 190925Z 32018KT 01/M00 A3005 RMK A01 T00091004  RH  092%=      5-min Rain = 0
KSE1 190930Z 32018KT 01/M01 A3005 RMK A01 T00121006  RH  089%=      5-min Rain = 0
KSE1 190935Z 33020G26KT 01/M01 A3005 RMK A01 T00141009  RH  085%=      5-min Rain = 0
KSE1 190940Z 33018G27KT 02/M01 A3006 RMK A01 T00151011  RH  083%=      5-min Rain = 0
KSE1 190945Z 33020G26KT 02/M01 A3006 RMK A01 T00161013  RH  082%=      5-min Rain = 0
KSE1 190950Z 33021G26KT 02/M01 A3006 RMK A01 T00171014  RH  081%=      5-min Rain = 0
KSE1 190955Z 33022G30KT 02/M02 A3006 RMK A01 T00171017  RH  079%=      5-min Rain = 0
KSE1 191000Z 33020G28KT 02/M02 A3007 RMK A01 T00171018  RH  078%=      5-min Rain = 0
KSE1 191005Z 33020G26KT 02/M02 A3007 RMK A01 T00161018  RH  078%=      5-min Rain = 0
KSE1 191010Z 33018G24KT 02/M02 A3007 RMK A01 T00161019  RH  078%=      5-min Rain = 0
KSE1 191015Z 33017G24KT 02/M02 A3007 RMK A01 T00161018  RH  079%=      5-min Rain = 0
KSE1 191020Z 33016G21KT 02/M02 A3007 RMK A01 T00161017  RH  080%=      5-min Rain = 0
KSE1 191025Z 33018G23KT 02/M02 A3008 RMK A01 T00161018  RH  079%=      5-min Rain = 0
KSE1 191030Z 33018KT 02/M02 A3008 RMK A01 T00171018  RH  079%=      5-min Rain = 0
KSE1 191035Z 33017G24KT 02/M02 A3008 RMK A01 T00171016  RH  079%=      5-min Rain = 0
KSE1 191040Z 33017KT 02/M02 A3009 RMK A01 T00171015  RH  080%=      5-min Rain = 0
KSE1 191045Z 33016KT 02/M02 A301 RMK A01 T00181015  RH  080%=      5-min Rain = 0
KSE1 191050Z 32020G25KT 02/M02 A301 RMK A01 T00191016  RH  078%=      5-min Rain = 0
KSE1 191055Z 33022G30KT 02/M02 A301 RMK A01 T00201018  RH  077%=      5-min Rain = 0
KSE1 191100Z 34022G29KT 02/M02 A301 RMK A01 T00201020  RH  076%=      5-min Rain = 0
KSE1 191105Z 34022G27KT 02/M02 A301 RMK A01 T00191020  RH  076%=      5-min Rain = 0
KSE1 191110Z 33019G26KT 02/M02 A3011 RMK A01 T00181020  RH  077%=      5-min Rain = 0
KSE1 191115Z 33018G23KT 02/M02 A3011 RMK A01 T00181018  RH  077%=      5-min Rain = 0
KSE1 191120Z 33023G32KT 02/M02 A3011 RMK A01 T00181021  RH  076%=      5-min Rain = 0
KSE1 191125Z 33025G32KT 02/M03 A3011 RMK A01 T00181028  RH  072%=      5-min Rain = 0
KSE1 191130Z 33023G30KT 02/M03 A3012 RMK A01 T00151030  RH  073%=      5-min Rain = 0
KSE1 191135Z 33026G33KT 01/M03 A3012 RMK A01 T00131033  RH  072%=      5-min Rain = 0
KSE1 191140Z 33025G35KT 01/M04 A3012 RMK A01 T00111035  RH  072%=      5-min Rain = 0
KSE1 191145Z 33024G31KT 01/M04 A3012 RMK A01 T00101036  RH  072%=      5-min Rain = 0
KSE1 191150Z 33023G29KT 01/M04 A3013 RMK A01 T00091037  RH  072%=      5-min Rain = 0
KSE1 191155Z 33020G27KT 01/M04 A3013 RMK A01 T00081038  RH  072%=      5-min Rain = 0
KSE1 191200Z 33019G26KT 01/M04 A3014 RMK A01 T00071037  RH  073%=      5-min Rain = 0
KSE1 191205Z 33017G23KT 01/M04 A3014 RMK A01 T00061035  RH  074%=      5-min Rain = 0
KSE1 191210Z 33016G21KT 01/M04 A3014 RMK A01 T00061036  RH  074%=      5-min Rain = 0
KSE1 191215Z 33016G21KT 01/M04 A3015 RMK A01 T00051035  RH  075%=      5-min Rain = 0
KSE1 191220Z 33016G21KT 01/M04 A3015 RMK A01 T00051037  RH  074%=      5-min Rain = 0
KSE1 191225Z 33020G26KT 01/M04 A3015 RMK A01 T00051039  RH  073%=      5-min Rain = 0
KSE1 191230Z 33019G26KT 00/M04 A3016 RMK A01 T00041041  RH  072%=      5-min Rain = 0
KSE1 191235Z 33017G22KT 00/M04 A3017 RMK A01 T00041042  RH  072%=      5-min Rain = 0
KSE1 191240Z 33017G26KT 00/M04 A3017 RMK A01 T00021042  RH  073%=      5-min Rain = 0
KSE1 191245Z 33017KT 00/M04 A3017 RMK A01 T00021043  RH  072%=      5-min Rain = 0
KSE1 191250Z 33015G20KT 00/04 A3018 RMK A01 T00000-43  RH  073%=      5-min Rain = 0
KSE1 191255Z 32016KT 00/04 A3018 RMK A01 T00-00-43  RH  073%=      5-min Rain = 0
KSE1 191300Z 32016G21KT M00/M04 A3019 RMK A01 T10011043  RH  074%=      5-min Rain = 0
KSE1 191305Z 32016G21KT M00/M04 A3019 RMK A01 T10011043  RH  073%=      5-min Rain = 0
KSE1 191310Z 33018KT M00/M04 A3019 RMK A01 T10011044  RH  073%=      5-min Rain = 0
KSE1 191315Z 33017G23KT 00/04 A302 RMK A01 T00-00-44  RH  073%=      5-min Rain = 0
KSE1 191320Z 33017G22KT M00/M05 A302 RMK A01 T10011045  RH  073%=      5-min Rain = 0
KSE1 191325Z 32016KT M00/M04 A3021 RMK A01 T10011044  RH  073%=      5-min Rain = 0
KSE1 191330Z 32013G18KT M00/M04 A3021 RMK A01 T10021043  RH  074%=      5-min Rain = 0
KSE1 191335Z 32013KT M00/M04 A3021 RMK A01 T10031043  RH  075%=      5-min Rain = 0
KSE1 191340Z 32012G18KT M00/M04 A3021 RMK A01 T10041041  RH  077%=      5-min Rain = 0
KSE1 191345Z 32015KT M00/M04 A3021 RMK A01 T10031042  RH  075%=      5-min Rain = 0
KSE1 191350Z 33015G20KT M00/M04 A3022 RMK A01 T10031043  RH  075%=      5-min Rain = 0
KSE1 191355Z 33016KT M00/M04 A3022 RMK A01 T10031043  RH  075%=      5-min Rain = 0
KSE1 191400Z 33015G20KT M00/M04 A3022 RMK A01 T10031043  RH  075%=      5-min Rain = 0
KSE1 191405Z 32014KT M00/M04 A3022 RMK A01 T10041042  RH  075%=      5-min Rain = 0
KSE1 191410Z 33018G24KT M00/M04 A3022 RMK A01 T10031044  RH  074%=      5-min Rain = 0
KSE1 191415Z 33022G30KT M00/M05 A3022 RMK A01 T10021046  RH  073%=      5-min Rain = 0
KSE1 191420Z 32020G25KT M00/M05 A3022 RMK A01 T10011047  RH  071%=      5-min Rain = 0
KSE1 191425Z 33021G27KT 00/05 A3023 RMK A01 T00-00-47  RH  071%=      5-min Rain = 0
KSE1 191430Z 33023G33KT 00/05 A3023 RMK A01 T00-00-49  RH  070%=      5-min Rain = 0
KSE1 191435Z 33021G28KT 00/05 A3023 RMK A01 T00000-49  RH  070%=      5-min Rain = 0
KSE1 191440Z 33022G29KT 00/05 A3024 RMK A01 T00000-50  RH  069%=      5-min Rain = 0
KSE1 191445Z 33022G30KT 00/M05 A3024 RMK A01 T00011049  RH  069%=      5-min Rain = 0
KSE1 191450Z 33020G26KT 00/M05 A3024 RMK A01 T00021048  RH  070%=      5-min Rain = 0
KSE1 191455Z 33020G25KT 00/M05 A3025 RMK A01 T00021047  RH  070%=      5-min Rain = 0
KSE1 191500Z 33020G27KT 00/M05 A3025 RMK A01 T00021047  RH  070%=      5-min Rain = 0
KSE1 191505Z 33018G24KT 00/M05 A3025 RMK A01 T00031045  RH  070%=      5-min Rain = 0
KSE1 191510Z 33022KT 00/M05 A3025 RMK A01 T00031046  RH  070%=      5-min Rain = 0
KSE1 191515Z 33021G27KT 00/M05 A3026 RMK A01 T00031047  RH  069%=      5-min Rain = 0
KSE1 191520Z 33019KT 00/M05 A3026 RMK A01 T00041045  RH  070%=      5-min Rain = 0
KSE1 191525Z 32018G23KT 01/M04 A3026 RMK A01 T00061043  RH  070%=      5-min Rain = 0
KSE1 191530Z 32017G23KT 01/M04 A3026 RMK A01 T00051043  RH  070%=      5-min Rain = 0
KSE1 191535Z 32017G25KT 01/M04 A3027 RMK A01 T00091039  RH  071%=      5-min Rain = 0
KSE1 191540Z 32023G30KT 01/M04 A3027 RMK A01 T00081043  RH  069%=      5-min Rain = 0
KSE1 191545Z 32021G28KT 01/M05 A3027 RMK A01 T00061048  RH  067%=      5-min Rain = 0
KSE1 191550Z 33022G28KT 01/M05 A3027 RMK A01 T00091047  RH  066%=      5-min Rain = 0
KSE1 191555Z 33022G28KT 01/M05 A3027 RMK A01 T00101048  RH  065%=      5-min Rain = 0
KSE1 191600Z 32025G33KT 01/M05 A3027 RMK A01 T00111050  RH  064%=      5-min Rain = 0
KSE1 191605Z 33021G31KT 01/M05 A3028 RMK A01 T00131047  RH  065%=      5-min Rain = 0
KSE1 191610Z 33027G35KT 01/M05 A3028 RMK A01 T00121052  RH  063%=      5-min Rain = 0
KSE1 191615Z 33025G31KT 01/M05 A3028 RMK A01 T00121052  RH  062%=      5-min Rain = 0
KSE1 191620Z 33024G33KT 01/M05 A3029 RMK A01 T00131052  RH  062%=      5-min Rain = 0
KSE1 191625Z 33023G29KT 02/M05 A3029 RMK A01 T00151051  RH  062%=      5-min Rain = 0
KSE1 191630Z 33021G30KT 02/M05 A3029 RMK A01 T00161050  RH  062%=      5-min Rain = 0
KSE1 191635Z 33021G26KT 02/M05 A3029 RMK A01 T00181049  RH  061%=      5-min Rain = 0
KSE1 191640Z 33023G32KT 02/M05 A303 RMK A01 T00181051  RH  060%=      5-min Rain = 0
KSE1 191645Z 32025G31KT 02/M06 A303 RMK A01 T00161056  RH  059%=      5-min Rain = 0
KSE1 191650Z 32024G33KT 02/M05 A303 RMK A01 T00181054  RH  059%=      5-min Rain = 0
KSE1 191655Z 33026G31KT 02/M06 A303 RMK A01 T00181057  RH  058%=      5-min Rain = 0
KSE1 191700Z 33027G34KT 02/M06 A303 RMK A01 T00181059  RH  057%=      5-min Rain = 0
KSE1 191705Z 34024G31KT 02/M06 A3031 RMK A01 T00211057  RH  056%=      5-min Rain = 0
KSE1 191710Z 33021G28KT 02/M06 A3031 RMK A01 T00231055  RH  056%=      5-min Rain = 0
KSE1 191715Z 32023G29KT 03/M06 A3031 RMK A01 T00251055  RH  056%=      5-min Rain = 0
KSE1 191720Z 32025G32KT 03/M06 A3031 RMK A01 T00251056  RH  055%=      5-min Rain = 0
KSE1 191725Z 33024G33KT 03/M06 A3031 RMK A01 T00261057  RH  054%=      5-min Rain = 0
KSE1 191730Z 33023KT 03/M06 A3031 RMK A01 T00261058  RH  054%=      5-min Rain = 0
KSE1 191735Z 33023G30KT 03/M06 A3031 RMK A01 T00291056  RH  054%=      5-min Rain = 0
KSE1 191740Z 33023G29KT 03/M06 A303 RMK A01 T00291058  RH  053%=      5-min Rain = 0
KSE1 191745Z 33021G28KT 03/M05 A303 RMK A01 T00341052  RH  054%=      5-min Rain = 0
KSE1 191750Z 33022G31KT 03/M05 A303 RMK A01 T00331054  RH  053%=      5-min Rain = 0
KSE1 191755Z 33023G31KT 03/M06 A303 RMK A01 T00341057  RH  052%=      5-min Rain = 0
KSE1 191800Z 32022G28KT 04/M06 A303 RMK A01 T00361055  RH  051%=      5-min Rain = 0
KSE1 191805Z 32023G29KT 04/M06 A303 RMK A01 T00381056  RH  050%=      5-min Rain = 0
KSE1 191810Z 32021G28KT 04/M06 A303 RMK A01 T00371056  RH  050%=      5-min Rain = 0
KSE1 191815Z 32022G28KT 04/M06 A303 RMK A01 T00401056  RH  050%=      5-min Rain = 0
KSE1 191820Z 32024G30KT 04/M06 A3029 RMK A01 T00401058  RH  049%=      5-min Rain = 0
KSE1 191825Z 32025G31KT 04/M06 A3029 RMK A01 T00411060  RH  048%=      5-min Rain = 0
KSE1 191830Z 33022G28KT 04/M06 A3029 RMK A01 T00431058  RH  048%=      5-min Rain = 0
KSE1 191835Z 33023G29KT 04/M06 A3029 RMK A01 T00431062  RH  047%=      5-min Rain = 0
KSE1 191840Z 33023G28KT 04/M06 A3029 RMK A01 T00431063  RH  046%=      5-min Rain = 0
KSE1 191845Z 33023G32KT 04/M06 A3029 RMK A01 T00441064  RH  046%=      5-min Rain = 0
KSE1 191850Z 32023G31KT 05/M07 A3028 RMK A01 T00451065  RH  045%=      5-min Rain = 0
KSE1 191855Z 32026G33KT 05/M07 A3028 RMK A01 T00451066  RH  044%=      5-min Rain = 0
KSE1 191900Z 33026G32KT 04/M07 A3028 RMK A01 T00431070  RH  044%=      5-min Rain = 0
KSE1 191905Z 33022G28KT 05/M07 A3028 RMK A01 T00451068  RH  044%=      5-min Rain = 0
KSE1 191910Z 33021G28KT 05/M07 A3028 RMK A01 T00471066  RH  043%=      5-min Rain = 0
KSE1 191915Z 33021G30KT 05/M06 A3028 RMK A01 T00501063  RH  044%=      5-min Rain = 0
KSE1 191920Z 33025G30KT 05/M07 A3027 RMK A01 T00501068  RH  042%=      5-min Rain = 0
KSE1 191925Z 32023G30KT 05/M07 A3027 RMK A01 T00501067  RH  043%=      5-min Rain = 0
KSE1 191930Z 33022G30KT 05/M07 A3026 RMK A01 T00501067  RH  042%=      5-min Rain = 0
KSE1 191935Z 33022G29KT 05/M06 A3027 RMK A01 T00541063  RH  043%=      5-min Rain = 0
KSE1 191940Z 31023KT 05/M07 A3027 RMK A01 T00521067  RH  042%=      5-min Rain = 0
KSE1 191945Z 32025G30KT 05/M07 A3026 RMK A01 T00531068  RH  041%=      5-min Rain = 0
KSE1 191950Z 32024G31KT 05/M07 A3027 RMK A01 T00541068  RH  041%=      5-min Rain = 0
KSE1 191955Z 33024G29KT 05/M07 A3027 RMK A01 T00521070  RH  041%=      5-min Rain = 0
KSE1 192000Z 33022G30KT 05/M07 A3027 RMK A01 T00541067  RH  041%=      5-min Rain = 0
KSE1 192005Z 33022G28KT 05/M07 A3027 RMK A01 T00541068  RH  041%=      5-min Rain = 0
KSE1 192010Z 33020G27KT 05/M07 A3026 RMK A01 T00541069  RH  040%=      5-min Rain = 0
KSE1 192015Z 32025G31KT 05/M07 A3026 RMK A01 T00541072  RH  040%=      5-min Rain = 0
KSE1 192020Z 33022G29KT 05/M07 A3026 RMK A01 T00541072  RH  040%=      5-min Rain = 0
KSE1 192025Z 34023G31KT 05/M07 A3026 RMK A01 T00541072  RH  040%=      5-min Rain = 0
KSE1 192030Z 32023KT 05/M07 A3026 RMK A01 T00541073  RH  040%=      5-min Rain = 0
KSE1 192035Z 32020G27KT 06/M07 A3026 RMK A01 T00561071  RH  040%=      5-min Rain = 0
KSE1 192040Z 33022G27KT 06/M07 A3026 RMK A01 T00551073  RH  039%=      5-min Rain = 0
KSE1 192045Z 33023G29KT 06/M07 A3026 RMK A01 T00561074  RH  039%=      5-min Rain = 0
KSE1 192050Z 33022G28KT 05/M08 A3026 RMK A01 T00531076  RH  039%=      5-min Rain = 0
KSE1 192055Z 33021G27KT 06/M07 A3026 RMK A01 T00551073  RH  039%=      5-min Rain = 0
KSE1 192100Z 32020G26KT 06/M07 A3026 RMK A01 T00551073  RH  039%=      5-min Rain = 0
KSE1 192105Z 32022G28KT 06/M07 A3026 RMK A01 T00561073  RH  039%=      5-min Rain = 0
KSE1 192110Z 33020G26KT 06/M07 A3026 RMK A01 T00551074  RH  039%=      5-min Rain = 0
KSE1 192115Z 32021G27KT 06/M07 A3026 RMK A01 T00551073  RH  039%=      5-min Rain = 0
KSE1 192120Z 32022G28KT 06/M07 A3026 RMK A01 T00551074  RH  039%=      5-min Rain = 0
KSE1 192125Z 33021G26KT 06/M07 A3026 RMK A01 T00551073  RH  039%=      5-min Rain = 0
KSE1 192130Z 34018G23KT 06/M07 A3027 RMK A01 T00561071  RH  040%=      5-min Rain = 0
KSE1 192135Z 33016G22KT 06/M07 A3027 RMK A01 T00561071  RH  039%=      5-min Rain = 0
KSE1 192140Z 33017KT 06/M07 A3027 RMK A01 T00581069  RH  039%=      5-min Rain = 0
KSE1 192145Z 34016G23KT 06/M07 A3028 RMK A01 T00591066  RH  040%=      5-min Rain = 0
KSE1 192150Z 33015KT 06/M07 A3028 RMK A01 T00581069  RH  040%=      5-min Rain = 0
KSE1 192155Z 32019G24KT 06/M07 A3028 RMK A01 T00571071  RH  039%=      5-min Rain = 0
KSE1 192200Z 32017G23KT 06/M07 A3028 RMK A01 T00571072  RH  039%=      5-min Rain = 0
KSE1 192205Z 33016KT 06/M07 A3028 RMK A01 T00581070  RH  039%=      5-min Rain = 0
KSE1 192210Z 32019G25KT 06/M07 A3028 RMK A01 T00571072  RH  039%=      5-min Rain = 0
KSE1 192215Z 31018G25KT 06/M07 A3028 RMK A01 T00551074  RH  039%=      5-min Rain = 0
KSE1 192220Z 32018KT 06/M07 A3028 RMK A01 T00561071  RH  039%=      5-min Rain = 0
KSE1 192225Z 33016G21KT 06/M07 A3028 RMK A01 T00561072  RH  039%=      5-min Rain = 0
KSE1 192230Z 33016KT 06/M07 A3028 RMK A01 T00561071  RH  040%=      5-min Rain = 0
KSE1 192235Z 33018G24KT 06/M07 A3028 RMK A01 T00561070  RH  040%=      5-min Rain = 0
KSE1 192240Z 33018KT 06/M07 A3029 RMK A01 T00551073  RH  039%=      5-min Rain = 0
KSE1 192245Z 33018G23KT 06/M07 A3029 RMK A01 T00551071  RH  040%=      5-min Rain = 0
KSE1 192250Z 32018KT 05/M07 A3029 RMK A01 T00531073  RH  040%=      5-min Rain = 0
KSE1 192255Z 33017G22KT 05/M07 A3029 RMK A01 T00531073  RH  040%=      5-min Rain = 0
KSE1 192300Z 33017KT 05/M07 A3029 RMK A01 T00531073  RH  040%=      5-min Rain = 0
KSE1 192305Z 33016G22KT 05/M08 A3029 RMK A01 T00511075  RH  040%=      5-min Rain = 0
KSE1 192310Z 33018G24KT 05/M08 A3029 RMK A01 T00511075  RH  040%=      5-min Rain = 0
KSE1 192315Z 33016KT 05/M07 A3029 RMK A01 T00501074  RH  040%=      5-min Rain = 0
KSE1 192320Z 33015G21KT 05/M07 A303 RMK A01 T00491073  RH  041%=      5-min Rain = 0
KSE1 192325Z 33015G20KT 05/M08 A303 RMK A01 T00481075  RH  041%=      5-min Rain = 0
KSE1 192330Z 33013KT 05/M07 A303 RMK A01 T00471073  RH  042%=      5-min Rain = 0
KSE1 192335Z 33013G18KT 05/M07 A303 RMK A01 T00461071  RH  042%=      5-min Rain = 0
KSE1 192340Z 33013KT 05/M07 A303 RMK A01 T00451072  RH  042%=      5-min Rain = 0
KSE1 192345Z 33014G20KT 04/M07 A303 RMK A01 T00441072  RH  042%=      5-min Rain = 0
KSE1 192350Z 33012KT 04/M07 A303 RMK A01 T00421070  RH  044%=      5-min Rain = 0
KSE1 192355Z 33012KT 04/M07 A303 RMK A01 T00401069  RH  045%=      5-min Rain = 0
KSE1 200000Z 34011KT 04/M07 A3029 RMK A01 T00381068  RH  046%=      5-min Rain = 0
KSE1 200005Z 34010KT 04/M07 A303 RMK A01 T00371068  RH  046%=      5-min Rain = 0
KSE1 200010Z 34010KT 04/M07 A303 RMK A01 T00351066  RH  048%=      5-min Rain = 0
KSE1 200015Z 34010KT 03/M06 A303 RMK A01 T00331063  RH  049%=      5-min Rain = 0
KSE1 200020Z 34010KT 03/M06 A303 RMK A01 T00331064  RH  049%=      5-min Rain = 0
KSE1 200025Z 34011KT 03/M06 A303 RMK A01 T00321062  RH  050%=      5-min Rain = 0
KSE1 200030Z 34010KT 03/M06 A303 RMK A01 T00311062  RH  051%=      5-min Rain = 0
KSE1 200035Z 34010KT 03/M06 A303 RMK A01 T00291061  RH  051%=      5-min Rain = 0
KSE1 200040Z 35008KT 03/M06 A303 RMK A01 T00261056  RH  055%=      5-min Rain = 0
KSE1 200045Z 35009KT 03/M05 A303 RMK A01 T00251053  RH  057%=      5-min Rain = 0
KSE1 200050Z 35009KT 02/M05 A303 RMK A01 T00241053  RH  057%=      5-min Rain = 0
KSE1 200055Z 34008KT 03/M06 A3031 RMK A01 T00251056  RH  055%=      5-min Rain = 0
KSE1 200100Z 35008KT 02/M06 A3031 RMK A01 T00241056  RH  056%=      5-min Rain = 0
KSE1 200105Z 35008KT 02/M05 A3031 RMK A01 T00221054  RH  057%=      5-min Rain = 0
KSE1 200110Z 36009KT 02/M06 A3031 RMK A01 T00221056  RH  056%=      5-min Rain = 0
KSE1 200115Z 36008KT 02/M06 A3031 RMK A01 T00231057  RH  056%=      5-min Rain = 0
KSE1 200120Z 36009KT 02/M06 A3031 RMK A01 T00231057  RH  055%=      5-min Rain = 0
KSE1 200125Z 36008KT 02/M06 A3031 RMK A01 T00221056  RH  056%=      5-min Rain = 0
KSE1 200130Z 00008KT 02/M06 A3032 RMK A01 T00211056  RH  057%=      5-min Rain = 0
KSE1 200135Z 01008KT 02/M06 A3032 RMK A01 T00191056  RH  057%=      5-min Rain = 0
KSE1 200140Z 01007KT 02/M06 A3032 RMK A01 T00161056  RH  059%=      5-min Rain = 0
KSE1 200145Z 02006KT 01/M06 A3032 RMK A01 T00131056  RH  060%=      5-min Rain = 0
KSE1 200150Z 02006KT 01/M06 A3033 RMK A01 T00101056  RH  062%=      5-min Rain = 0
KSE1 200155Z 01006KT 01/M05 A3033 RMK A01 T00081054  RH  064%=      5-min Rain = 0
KSE1 200200Z 01006KT 01/M05 A3033 RMK A01 T00071054  RH  064%=      5-min Rain = 0
KSE1 200205Z 00006KT 01/M05 A3033 RMK A01 T00071053  RH  064%=      5-min Rain = 0
KSE1 200210Z 01007KT 01/M06 A3033 RMK A01 T00091055  RH  063%=      5-min Rain = 0
KSE1 200215Z 01006KT 01/M06 A3033 RMK A01 T00081056  RH  062%=      5-min Rain = 0
KSE1 200220Z 02005KT 01/M06 A3033 RMK A01 T00081057  RH  062%=      5-min Rain = 0
KSE1 200225Z 02004KT 01/M06 A3033 RMK A01 T00051057  RH  063%=      5-min Rain = 0
KSE1 200230Z 03004KT 00/M06 A3033 RMK A01 T00031057  RH  064%=      5-min Rain = 0
KSE1 200235Z 04003KT 00/06 A3033 RMK A01 T00000-57  RH  066%=      5-min Rain = 0
KSE1 200240Z 04004KT M00/M05 A3032 RMK A01 T10031053  RH  069%=      5-min Rain = 0
KSE1 200245Z 04006KT M00/M05 A3032 RMK A01 T10041052  RH  070%=      5-min Rain = 0
KSE1 200250Z 03007KT M01/M05 A3031 RMK A01 T10071052  RH  072%=      5-min Rain = 0
KSE1 200255Z 03009KT M01/M05 A3031 RMK A01 T10071052  RH  072%=      5-min Rain = 0
KSE1 200300Z 02008KT M00/M05 A3031 RMK A01 T10041052  RH  070%=      5-min Rain = 0
KSE1 200305Z 02005KT M00/M05 A3032 RMK A01 T10031053  RH  069%=      5-min Rain = 0
KSE1 200310Z 03004KT M00/M05 A3032 RMK A01 T10031054  RH  069%=      5-min Rain = 0
KSE1 200315Z 04006KT M01/M06 A3032 RMK A01 T10061056  RH  069%=      5-min Rain = 0
KSE1 200320Z 03006KT M01/M06 A3032 RMK A01 T10101055  RH  072%=      5-min Rain = 0
KSE1 200325Z 03005KT M01/M05 A3032 RMK A01 T10141052  RH  075%=      5-min Rain = 0
KSE1 200330Z 02005KT M01/M05 A3033 RMK A01 T10141049  RH  077%=      5-min Rain = 0
KSE1 200335Z 03006KT M02/M05 A3034 RMK A01 T10161050  RH  078%=      5-min Rain = 0
KSE1 200340Z 03006KT M02/M05 A3034 RMK A01 T10221053  RH  079%=      5-min Rain = 0
KSE1 200345Z 03006KT M02/M05 A3034 RMK A01 T10211052  RH  080%=      5-min Rain = 0
KSE1 200350Z 03004KT M02/M05 A3035 RMK A01 T10191054  RH  077%=      5-min Rain = 0
KSE1 200355Z 04004KT M02/M06 A3035 RMK A01 T10181055  RH  076%=      5-min Rain = 0
KSE1 200400Z 04005KT M02/M05 A3035 RMK A01 T10191054  RH  077%=      5-min Rain = 0
KSE1 200405Z 04006KT M02/M05 A3035 RMK A01 T10211052  RH  080%=      5-min Rain = 0
KSE1 200410Z 04005KT M02/M05 A3035 RMK A01 T10211051  RH  080%=      5-min Rain = 0
KSE1 200415Z 05005KT M02/M05 A3036 RMK A01 T10181052  RH  078%=      5-min Rain = 0
KSE1 200420Z 04005KT M02/M05 A3036 RMK A01 T10181053  RH  077%=      5-min Rain = 0
KSE1 200425Z 04004KT M02/M05 A3037 RMK A01 T10171051  RH  078%=      5-min Rain = 0
KSE1 200430Z 05002KT M02/M05 A3036 RMK A01 T10171051  RH  078%=      5-min Rain = 0
KSE1 200435Z 06003KT M02/M05 A3036 RMK A01 T10181053  RH  078%=      5-min Rain = 0
KSE1 200440Z 06003KT M02/M05 A3036 RMK A01 T10181053  RH  077%=      5-min Rain = 0
KSE1 200445Z 05004KT M02/M05 A3035 RMK A01 T10181052  RH  078%=      5-min Rain = 0
KSE1 200450Z 03004KT M02/M05 A3036 RMK A01 T10191051  RH  079%=      5-min Rain = 0
KSE1 200455Z 04006KT M02/M05 A3036 RMK A01 T10201050  RH  081%=      5-min Rain = 0
KSE1 200500Z 04005KT M02/M05 A3036 RMK A01 T10221051  RH  081%=      5-min Rain = 0
KSE1 200505Z 05005KT M02/M05 A3036 RMK A01 T10201053  RH  079%=      5-min Rain = 0
KSE1 200510Z 05005KT M02/M05 A3036 RMK A01 T10211053  RH  079%=      5-min Rain = 0
KSE1 200515Z 05005KT M02/M05 A3036 RMK A01 T10201053  RH  078%=      5-min Rain = 0
KSE1 200520Z 05005KT M02/M05 A3037 RMK A01 T10211054  RH  078%=      5-min Rain = 0
KSE1 200525Z 05005KT M02/M05 A3036 RMK A01 T10201054  RH  078%=      5-min Rain = 0
KSE1 200530Z 04006KT M02/M06 A3036 RMK A01 T10201055  RH  078%=      5-min Rain = 0
KSE1 200535Z 04005KT M02/M06 A3037 RMK A01 T10201055  RH  077%=      5-min Rain = 0
KSE1 200540Z 04006KT M02/M06 A3037 RMK A01 T10201056  RH  077%=      5-min Rain = 0
KSE1 200545Z 04007KT M02/M06 A3037 RMK A01 T10201057  RH  076%=      5-min Rain = 0
KSE1 200550Z 04007KT M02/M06 A3037 RMK A01 T10201055  RH  077%=      5-min Rain = 0
KSE1 200555Z 04008KT M02/M06 A3037 RMK A01 T10201055  RH  077%=      5-min Rain = 0

Page generated in 0.0092 seconds.